Time;durP1;ratioP1;P1;durP2;ratioP2;P2;SDS_P1;SDS_P2;PMS_P1;PMS_P2;Temp;Humidity;BMP_temperature;BMP_pressure;BME280_temperature;BME280_humidity;BME280_pressure;Samples;Min_cycle;Max_cycle;Signal;HPM_P1;HPM_P2
2022/06/14 00:01:44;;;;;;;7.93;2.40;;;;;;;11.99;79.01;102398.75;5052383;28;20031;-41
2022/06/14 00:04:10;;;;;;;12.48;2.55;;;;;;;11.89;79.92;102391.13;5053829;28;20051;-40
2022/06/14 00:06:35;;;;;;;17.60;2.72;;;;;;;11.90;79.81;102382.38;5053556;28;20021;-43
2022/06/14 00:09:00;;;;;;;11.38;2.70;;;;;;;11.85;80.43;102396.72;5053589;28;20040;-40
2022/06/14 00:11:31;;;;;;;8.98;2.28;;;;;;;11.86;80.56;102399.22;5052305;28;20025;-41
2022/06/14 00:13:59;;;;;;;11.52;2.20;;;;;;;11.88;80.63;102401.63;5053214;28;20025;-41
2022/06/14 00:16:26;;;;;;;19.45;2.28;;;;;;;11.87;80.91;102395.63;5053271;28;20032;-50
2022/06/14 00:18:52;;;;;;;11.55;2.50;;;;;;;12.03;80.46;102404.47;5053674;28;20028;-41
2022/06/14 00:21:17;;;;;;;10.57;2.20;;;;;;;11.77;80.08;102381.97;5053736;28;20037;-41
2022/06/14 00:23:43;;;;;;;14.15;2.33;;;;;;;11.94;80.78;102391.47;5053673;28;20039;-42
2022/06/14 00:26:11;;;;;;;7.15;1.92;;;;;;;11.86;80.51;102395.81;5052071;28;20021;-41
2022/06/14 00:28:36;;;;;;;11.90;2.63;;;;;;;11.75;81.17;102395.06;5053325;28;20028;-40
2022/06/14 00:31:28;;;;;;;10.50;2.30;;;;;;;12.04;80.82;102393.13;5053266;28;20049;-39
2022/06/14 00:33:54;;;;;;;8.20;1.98;;;;;;;12.12;80.21;102393.16;5053578;28;20029;-41
2022/06/14 00:36:28;;;;;;;9.73;2.08;;;;;;;12.22;80.20;102396.41;5053529;28;20028;-38
2022/06/14 00:38:55;;;;;;;11.80;2.80;;;;;;;12.24;80.05;102399.66;5053430;28;20048;-40
2022/06/14 00:41:38;;;;;;;12.68;2.58;;;;;;;12.34;79.61;102404.69;5053248;28;20032;-42
2022/06/14 00:44:08;;;;;;;12.10;2.40;;;;;;;12.32;79.20;102404.84;5053154;28;20445;-40
2022/06/14 00:46:49;;;;;;;11.73;2.50;;;;;;;12.25;80.36;102393.47;5053481;28;20025;-40
2022/06/14 00:49:59;;;;;;;10.63;2.90;;;;;;;12.21;80.28;102399.97;5053054;28;20029;-40
2022/06/14 00:52:34;;;;;;;11.27;2.53;;;;;;;12.12;80.36;102393.16;5051678;28;20024;-40
2022/06/14 00:55:07;;;;;;;14.98;2.40;;;;;;;12.12;81.17;102393.94;5053558;28;20368;-43
2022/06/14 00:57:46;;;;;;;10.30;2.40;;;;;;;12.17;80.48;102396.09;5053383;28;20032;-42
2022/06/14 01:00:19;;;;;;;12.88;2.42;;;;;;;12.09;81.01;102386.50;5053246;28;20119;-40
2022/06/14 01:02:50;;;;;;;11.10;2.28;;;;;;;11.93;80.50;102384.66;5053234;28;20032;-42
2022/06/14 01:06:05;;;;;;;10.13;2.70;;;;;;;11.90;81.54;102390.16;5052961;28;20013;-41
2022/06/14 01:08:21;;;;;;;7.90;2.05;;;;;;;11.70;81.95;102368.00;5052846;28;20043;-43
2022/06/14 01:10:47;;;;;;;8.70;2.90;;;;;;;11.62;81.79;102380.91;5052923;28;20035;-41
2022/06/14 01:13:16;;;;;;;11.20;2.42;;;;;;;11.63;82.36;102378.19;5052859;28;20029;-41
2022/06/14 01:15:42;;;;;;;8.73;2.20;;;;;;;11.64;81.96;102379.00;5053015;28;20467;-42
2022/06/14 01:18:12;;;;;;;7.82;2.08;;;;;;;11.67;82.58;102373.50;5053146;28;20031;-41
2022/06/14 01:20:39;;;;;;;9.05;2.50;;;;;;;11.63;83.02;102374.78;5051969;28;20062;-42
2022/06/14 01:23:06;;;;;;;9.50;2.20;;;;;;;11.70;82.24;102373.19;5053320;28;20056;-41
2022/06/14 01:25:36;;;;;;;10.80;2.40;;;;;;;11.63;82.22;102367.84;5053234;28;20031;-40
2022/06/14 01:28:03;;;;;;;14.50;2.50;;;;;;;11.57;81.97;102367.66;5055398;28;20017;-41
2022/06/14 01:30:32;;;;;;;12.07;2.85;;;;;;;11.48;82.22;102362.44;5056321;28;20057;-42
2022/06/14 01:33:08;;;;;;;8.02;2.40;;;;;;;11.51;82.24;102358.72;5056949;28;20211;-41
2022/06/14 01:35:38;;;;;;;9.70;2.53;;;;;;;11.40;81.46;102352.03;5055404;28;20434;-41
2022/06/14 01:38:11;;;;;;;9.90;2.50;;;;;;;11.25;83.13;102343.22;5056361;28;20104;-42
2022/06/14 01:41:07;;;;;;;7.63;2.40;;;;;;;11.24;82.44;102344.97;5056378;28;20075;-41
2022/06/14 01:43:54;;;;;;;10.40;2.53;;;;;;;10.99;83.64;102351.78;5055350;28;20025;-40
2022/06/14 01:46:25;;;;;;;9.48;2.50;;;;;;;11.06;84.43;102350.19;5056847;28;20025;-42
2022/06/14 01:52:31;;;;;;;10.07;2.40;;;;;;;11.35;82.87;102338.72;5014302;28;20440;-41
2022/06/14 01:55:06;;;;;;;9.35;2.50;;;;;;;11.23;82.64;102338.19;5048312;28;20549;-41
2022/06/14 01:57:49;;;;;;;10.93;2.35;;;;;;;11.22;83.87;102339.16;5056057;28;20094;-38
2022/06/14 02:00:17;;;;;;;;;;;;;;;11.29;83.86;102340.16;5056401;28;20021;-39
2022/06/14 02:04:37;;;;;;;8.80;2.85;;;;;;;11.23;83.44;102340.75;5055872;28;19934;-40
2022/06/14 02:06:04;;;;;;;9.15;2.35;;;;;;;10.96;82.96;102325.38;5055827;28;20098;-40
2022/06/14 02:08:35;;;;;;;7.63;2.47;;;;;;;11.02;82.38;102340.31;5044089;28;20037;-41
2022/06/14 02:11:11;;;;;;;6.35;2.00;;;;;;;11.03;82.60;102345.31;5054520;28;20033;-40
2022/06/14 02:13:49;;;;;;;5.85;2.30;;;;;;;10.78;83.28;102335.75;5056516;28;20345;-41
2022/06/14 02:16:27;;;;;;;12.68;2.40;;;;;;;10.79;84.12;102345.97;5055434;28;20029;-41
2022/06/14 02:19:13;;;;;;;8.05;2.40;;;;;;;10.60;84.16;102323.66;5056163;28;20020;-41
2022/06/14 02:21:44;;;;;;;10.00;2.33;;;;;;;10.86;84.44;102345.38;5055917;28;20025;-40
2022/06/14 02:24:18;;;;;;;6.80;2.22;;;;;;;10.92;83.47;102342.97;5055820;28;20484;-40
2022/06/14 02:26:55;;;;;;;11.18;2.47;;;;;;;10.95;83.33;102353.03;5055688;28;20467;-42
2022/06/14 02:29:49;;;;;;;11.00;2.33;;;;;;;10.94;83.16;102338.47;5055643;28;20045;-39
2022/06/14 02:32:44;;;;;;;7.95;2.45;;;;;;;10.87;83.44;102340.03;5053375;28;20045;-41
2022/06/14 02:35:18;;;;;;;6.80;2.13;;;;;;;10.93;83.57;102346.38;5054693;28;20145;-41
2022/06/14 02:38:01;;;;;;;9.20;2.35;;;;;;;10.94;83.69;102330.72;5054707;28;20078;-44
2022/06/14 02:40:38;;;;;;;8.90;2.53;;;;;;;10.94;83.44;102329.91;5055278;28;20025;-40
2022/06/14 02:43:18;;;;;;;11.95;2.25;;;;;;;11.00;83.08;102332.69;5053891;28;20178;-38
2022/06/14 02:45:57;;;;;;;5.82;2.20;;;;;;;10.98;83.39;102334.63;5054654;28;20032;-42
2022/06/14 02:48:35;;;;;;;6.88;2.30;;;;;;;10.95;83.59;102331.53;5055264;28;20024;-41
2022/06/14 02:51:12;;;;;;;10.38;3.13;;;;;;;10.79;84.07;102333.03;5054961;28;20025;-40
2022/06/14 02:53:46;;;;;;;9.73;2.38;;;;;;;10.77;83.86;102334.16;5053749;28;20032;-39
2022/06/14 02:56:27;;;;;;;10.50;2.03;;;;;;;10.58;82.90;102335.13;5055343;28;20507;-37
2022/06/14 02:59:02;;;;;;;6.93;2.15;;;;;;;10.54;83.02;102321.69;5055120;28;20143;-48
2022/06/14 03:01:36;;;;;;;9.75;2.20;;;;;;;10.54;82.94;102328.63;5054703;28;20032;-40
2022/06/14 03:04:11;;;;;;;7.65;2.10;;;;;;;10.44;83.28;102333.88;5055053;28;20025;-40
2022/06/14 03:06:42;;;;;;;6.75;2.33;;;;;;;10.38;82.48;102330.09;5054735;28;20106;-41
2022/06/14 03:09:17;;;;;;;7.55;2.15;;;;;;;10.41;82.57;102335.94;5054626;28;20029;-39
2022/06/14 03:12:10;;;;;;;7.25;2.30;;;;;;;10.31;82.50;102323.91;5054598;28;20364;-39
2022/06/14 03:14:50;;;;;;;9.02;1.90;;;;;;;10.39;82.42;102329.16;5054723;28;20082;-41
2022/06/14 03:17:22;;;;;;;10.15;2.10;;;;;;;10.47;82.71;102322.41;5054810;28;20449;-40
2022/06/14 03:20:30;;;;;;;6.93;2.10;;;;;;;10.27;82.29;102314.84;5054498;28;20437;-41
2022/06/14 03:23:09;;;;;;;7.28;2.50;;;;;;;10.37;82.32;102319.91;5054587;28;20063;-41
2022/06/14 03:25:42;;;;;;;5.85;2.08;;;;;;;10.36;82.77;102316.53;5053069;28;20100;-41
2022/06/14 03:28:10;;;;;;;6.18;2.22;;;;;;;10.27;83.01;102319.16;5054288;28;20074;-42
2022/06/14 03:30:43;;;;;;;9.20;2.20;;;;;;;10.19;82.89;102313.91;5054557;28;20087;-39
2022/06/14 03:33:15;;;;;;;9.43;2.50;;;;;;;10.31;83.17;102320.50;5054385;28;20025;-45
2022/06/14 03:35:44;;;;;;;5.88;2.20;;;;;;;10.35;82.66;102316.66;5054634;28;20061;-41
2022/06/14 03:38:28;;;;;;;9.38;2.35;;;;;;;10.42;82.63;102322.88;5054464;28;20465;-42
2022/06/14 03:40:54;;;;;;;11.27;2.50;;;;;;;10.36;82.51;102319.13;5054600;28;20048;-40
2022/06/14 03:43:20;;;;;;;9.40;2.20;;;;;;;10.43;82.75;102321.09;5054251;28;20024;-41
2022/06/14 03:46:05;;;;;;;6.60;2.33;;;;;;;10.52;82.65;102310.69;5053929;28;20052;-43
2022/06/14 03:48:34;;;;;;;7.18;2.38;;;;;;;10.62;82.94;102315.78;5053082;28;20104;-41
2022/06/14 03:51:08;;;;;;;7.35;2.38;;;;;;;10.67;82.24;102316.13;5054402;28;20032;-42
2022/06/14 03:53:58;;;;;;;5.35;2.45;;;;;;;10.67;82.31;102315.31;5052633;28;20021;-42
2022/06/14 03:56:54;;;;;;;9.25;2.70;;;;;;;10.71;82.48;102316.66;5054013;28;20116;-39
2022/06/14 03:59:37;;;;;;;12.73;2.97;;;;;;;10.77;82.81;102316.06;5054062;28;20375;-41
2022/06/14 04:05:32;;;;;;;8.07;2.65;;;;;;;10.72;82.33;102316.50;5054497;28;20123;-40
2022/06/14 04:08:05;;;;;;;6.43;2.50;;;;;;;10.78;82.08;102318.47;5053639;28;20475;-41
2022/06/14 04:10:39;;;;;;;8.32;2.60;;;;;;;10.84;81.94;102315.28;5053628;28;20029;-39
2022/06/14 04:13:35;;;;;;;5.80;2.33;;;;;;;10.68;81.62;102325.53;5053568;28;20047;-41
2022/06/14 04:16:17;;;;;;;7.22;2.80;;;;;;;10.74;82.23;102324.91;5053344;28;20029;-42
2022/06/14 04:19:17;;;;;;;5.13;2.30;;;;;;;10.89;81.18;102326.97;5053962;28;20115;-42
2022/06/14 04:21:54;;;;;;;8.05;2.40;;;;;;;11.04;80.90;102326.25;5053973;28;20025;-41
2022/06/14 04:24:49;;;;;;;9.75;2.88;;;;;;;11.09;80.28;102325.00;5053416;28;20035;-42
2022/06/14 04:27:28;;;;;;;6.25;3.05;;;;;;;11.04;80.16;102315.09;5053715;28;20025;-39
2022/06/14 04:30:15;;;;;;;9.88;3.20;;;;;;;11.19;79.42;102331.69;5053727;28;20044;-41
2022/06/14 04:33:00;;;;;;;9.23;2.80;;;;;;;11.24;79.43;102320.88;5053579;28;20103;-41
2022/06/14 04:35:36;;;;;;;10.55;2.80;;;;;;;11.50;79.83;102333.78;5053441;28;20025;-40
2022/06/14 04:38:17;;;;;;;8.15;2.53;;;;;;;11.57;79.06;102328.81;5053255;28;20025;-39
2022/06/14 04:40:50;;;;;;;7.40;2.50;;;;;;;11.59;78.86;102338.03;5052203;28;20036;-40
2022/06/14 04:43:24;;;;;;;7.47;2.85;;;;;;;11.60;78.97;102341.44;5053487;28;20020;-41
2022/06/14 04:46:06;;;;;;;6.38;2.70;;;;;;;11.73;78.84;102347.00;5051887;28;20419;-41
2022/06/14 04:48:38;;;;;;;8.80;3.15;;;;;;;11.82;78.61;102345.25;5053097;28;20028;-40
2022/06/14 04:51:16;;;;;;;8.43;3.13;;;;;;;11.85;78.01;102340.56;5053301;28;20029;-40
2022/06/14 04:53:49;;;;;;;9.10;3.20;;;;;;;11.99;77.75;102346.94;5053361;28;20029;-42
2022/06/14 04:56:21;;;;;;;8.75;3.03;;;;;;;12.12;78.52;102351.69;5052079;28;20035;-38
2022/06/14 04:58:54;;;;;;;9.82;2.80;;;;;;;12.22;77.94;102346.34;5053616;28;20029;-41
2022/06/14 05:01:26;;;;;;;10.80;3.40;;;;;;;12.35;77.50;102347.50;5055649;28;20517;-42
2022/06/14 05:04:01;;;;;;;9.20;3.22;;;;;;;12.54;77.00;102345.56;5056396;28;20025;-42
2022/06/14 05:06:36;;;;;;;9.27;3.25;;;;;;;12.76;76.86;102349.31;5055656;28;20054;-41
2022/06/14 05:09:08;;;;;;;11.15;3.17;;;;;;;12.92;75.90;102351.91;5057153;28;20021;-40
2022/06/14 05:12:10;;;;;;;10.85;3.22;;;;;;;13.11;75.65;102350.72;5057173;28;20040;-42
2022/06/14 05:14:40;;;;;;;8.45;3.20;;;;;;;13.55;74.38;102350.28;5056270;28;20098;-43
2022/06/14 05:17:24;;;;;;;8.50;3.08;;;;;;;13.53;74.58;102352.28;5055533;28;20175;-42
2022/06/14 05:19:56;;;;;;;9.80;3.40;;;;;;;13.52;75.44;102348.03;5057186;28;20123;-40
2022/06/14 05:22:45;;;;;;;8.95;3.20;;;;;;;13.63;75.99;102352.06;5057121;28;20183;-41
2022/06/14 05:25:12;;;;;;;11.65;3.30;;;;;;;13.88;74.56;102350.16;5056854;28;20030;-41
2022/06/14 05:27:43;;;;;;;6.80;2.70;;;;;;;14.23;73.31;102354.03;5056580;28;20423;-41
2022/06/14 05:30:18;;;;;;;8.50;2.55;;;;;;;15.20;69.41;102351.59;5056329;28;21120;-40
2022/06/14 05:33:23;;;;;;;10.73;2.47;;;;;;;17.85;59.01;102349.69;5056805;28;20147;-42
2022/06/14 05:36:12;;;;;;;8.60;2.20;;;;;;;20.40;51.20;102353.13;5055057;28;20017;-42
2022/06/14 05:38:58;;;;;;;6.40;2.08;;;;;;;22.49;46.06;102349.41;5056689;28;20051;-41
2022/06/14 05:41:35;;;;;;;7.35;2.20;;;;;;;24.33;40.72;102355.59;5056477;28;20067;-42
2022/06/14 05:44:08;;;;;;;8.50;2.35;;;;;;;24.95;38.43;102359.94;5056582;28;20027;-42
2022/06/14 05:46:41;;;;;;;7.93;2.17;;;;;;;25.44;37.75;102352.06;5056182;28;20426;-40
2022/06/14 05:49:15;;;;;;;7.57;2.03;;;;;;;26.47;35.42;102345.75;5054963;28;20045;-41
2022/06/14 05:52:08;;;;;;;7.55;2.20;;;;;;;26.32;35.74;102338.53;5056470;28;20033;-44
2022/06/14 05:54:58;;;;;;;7.45;2.20;;;;;;;26.18;35.40;102340.00;5056277;28;20053;-42
2022/06/14 05:57:30;;;;;;;8.38;2.03;;;;;;;27.13;34.36;102345.31;5055903;28;20036;-41
2022/06/14 06:00:35;;;;;;;6.13;2.00;;;;;;;26.94;33.43;102340.47;5056286;28;20035;-40
2022/06/14 06:03:11;;;;;;;9.75;2.30;;;;;;;27.57;32.94;102339.59;5025366;28;20472;-42
2022/06/14 06:05:51;;;;;;;7.45;1.92;;;;;;;27.58;33.14;102327.91;5056126;28;20474;-44
2022/06/14 06:08:45;;;;;;;7.85;1.80;;;;;;;27.56;33.37;102338.78;5055997;28;20391;-43
2022/06/14 06:11:17;;;;;;;7.03;1.83;;;;;;;27.85;34.46;102339.13;5055020;28;20024;-43
2022/06/14 06:13:51;;;;;;;4.50;1.60;;;;;;;28.19;32.65;102340.41;5055885;28;20033;-43
2022/06/14 06:17:19;;;;;;;6.13;1.85;;;;;;;27.80;33.17;102339.13;5055913;28;20060;-44
2022/06/14 06:19:44;;;;;;;5.00;1.58;;;;;;;28.05;32.25;102338.31;5045598;28;20060;-44
2022/06/14 06:22:20;;;;;;;6.57;1.80;;;;;;;28.46;30.82;102332.16;5034804;28;20438;-44
2022/06/14 06:25:14;;;;;;;5.53;1.75;;;;;;;28.33;31.75;102350.22;5055733;28;20021;-43
2022/06/14 06:27:56;;;;;;;6.40;1.70;;;;;;;27.26;33.15;102355.47;5053263;28;20041;-43
2022/06/14 06:30:37;;;;;;;5.60;1.63;;;;;;;26.96;32.94;102356.94;5055282;28;20049;-41
2022/06/14 06:33:03;;;;;;;4.90;1.50;;;;;;;26.55;34.59;102348.75;5055752;28;20029;-40
2022/06/14 06:35:55;;;;;;;7.03;1.55;;;;;;;25.77;35.66;102351.06;5055561;28;20021;-42
2022/06/14 06:39:11;;;;;;;9.60;2.10;;;;;;;22.78;41.69;102350.31;5055775;28;20028;-42
2022/06/14 06:41:54;;;;;;;5.68;1.75;;;;;;;20.78;47.11;102349.59;5029271;28;20036;-43
2022/06/14 06:44:46;;;;;;;5.47;2.13;;;;;;;20.67;46.07;102356.34;5055254;28;20029;-42
2022/06/14 06:47:12;;;;;;;7.53;1.70;;;;;;;20.98;47.09;102362.53;5054306;28;20032;-43
2022/06/14 06:49:47;;;;;;;6.88;1.80;;;;;;;20.47;47.89;102360.94;5055417;28;20025;-44
2022/06/14 06:52:19;;;;;;;4.10;1.55;;;;;;;20.76;47.14;102358.72;5055124;28;20405;-43
2022/06/14 06:54:55;;;;;;;7.23;1.67;;;;;;;20.72;48.59;102356.53;5055439;28;20033;-44
2022/06/14 06:57:25;;;;;;;6.45;1.73;;;;;;;20.44;47.50;102356.13;5055109;28;20475;-42
2022/06/14 06:59:52;;;;;;;6.95;1.50;;;;;;;20.70;46.51;102358.56;5055341;28;20036;-43
2022/06/14 07:02:30;;;;;;;5.00;1.80;;;;;;;20.70;46.99;102352.50;5054595;28;20029;-40
2022/06/14 07:05:03;;;;;;;5.43;1.88;;;;;;;20.87;46.83;102358.81;5053465;28;20388;-42
2022/06/14 07:07:34;;;;;;;6.15;1.55;;;;;;;21.39;44.80;102359.25;5054643;28;20036;-41
2022/06/14 07:10:14;;;;;;;6.22;1.80;;;;;;;21.11;44.59;102364.22;5054880;28;20046;-43
2022/06/14 07:12:50;;;;;;;6.40;1.80;;;;;;;21.18;44.26;102363.13;5054905;28;20032;-43
2022/06/14 07:15:22;;;;;;;5.93;1.48;;;;;;;21.21;44.73;102366.34;5054674;28;20379;-41
2022/06/14 07:18:08;;;;;;;4.32;1.70;;;;;;;21.01;45.75;102366.56;5053463;28;20063;-43
2022/06/14 07:20:44;;;;;;;5.72;1.70;;;;;;;20.92;43.32;102371.31;5053133;28;20025;-43
2022/06/14 07:23:23;;;;;;;7.18;1.42;;;;;;;21.01;45.12;102359.47;5054831;28;20104;-44
2022/06/14 07:26:15;;;;;;;5.57;1.80;;;;;;;21.13;43.13;102356.91;5054256;28;20036;-44
2022/06/14 07:29:04;;;;;;;9.43;1.90;;;;;;;21.74;41.39;102365.72;5054764;28;20052;-42
2022/06/14 07:31:40;;;;;;;8.02;2.40;;;;;;;21.35;43.12;102358.09;5027376;22;20050;-70
2022/06/14 07:34:07;;;;;;;8.00;1.80;;;;;;;21.14;43.04;102366.41;5014876;28;20034;-70
2022/06/14 07:36:54;;;;;;;6.43;1.70;;;;;;;21.47;42.73;102355.53;5014743;28;20041;-70
2022/06/14 07:39:45;;;;;;;5.57;1.70;;;;;;;21.33;42.30;102360.13;5013482;28;20044;-69
2022/06/14 07:42:20;;;;;;;5.00;2.00;;;;;;;21.68;41.88;102356.09;5014733;28;20339;-70
2022/06/14 07:44:50;;;;;;;6.57;2.00;;;;;;;22.37;41.17;102362.59;5014722;28;20393;-70
2022/06/14 07:47:29;;;;;;;5.88;1.77;;;;;;;22.44;40.06;102355.38;5014720;28;20500;-71
2022/06/14 07:50:11;;;;;;;8.45;1.70;;;;;;;22.11;41.61;102355.06;5014468;28;20029;-71
2022/06/14 07:53:08;;;;;;;5.13;1.58;;;;;;;22.68;41.05;102363.28;5014490;28;20053;-71
2022/06/14 07:55:40;;;;;;;4.35;1.73;;;;;;;22.44;40.37;102363.28;5012481;28;20509;-70
2022/06/14 07:58:12;;;;;;;7.40;1.97;;;;;;;22.31;40.32;102355.59;5014543;28;20113;-71
2022/06/14 08:03:50;;;;;;;7.25;1.98;;;;;;;22.21;40.70;102357.97;5014952;28;20122;-71
2022/06/14 08:06:35;;;;;;;5.78;1.65;;;;;;;22.15;41.28;102361.47;5013706;28;20022;-70
2022/06/14 08:09:29;;;;;;;6.03;1.73;;;;;;;22.86;40.28;102354.44;5011753;28;20421;-70
2022/06/14 08:11:57;;;;;;;5.40;1.50;;;;;;;21.94;42.10;102360.19;5006653;28;20382;-71
2022/06/14 08:14:35;;;;;;;7.10;1.70;;;;;;;21.99;41.39;102352.41;5013596;28;20521;-70
2022/06/14 08:17:02;;;;;;;5.13;1.85;;;;;;;22.39;41.69;102357.09;5012428;28;20047;-70
2022/06/14 08:19:36;;;;;;;4.85;1.52;;;;;;;23.02;39.78;102353.78;5013606;28;20036;-70
2022/06/14 08:22:07;;;;;;;1.58;1.05;;;;;;;22.89;39.44;102364.53;5012309;28;20076;-70
2022/06/14 08:24:41;;;;;;;5.47;1.75;;;;;;;22.84;38.92;102364.41;5012251;28;20072;-71
2022/06/14 08:27:46;;;;;;;6.95;1.55;;;;;;;23.37;38.62;102353.69;5013561;28;20093;-70
2022/06/14 08:30:23;;;;;;;3.97;1.52;;;;;;;23.30;37.80;102350.34;4972258;28;20043;-70
2022/06/14 08:33:08;;;;;;;5.95;1.40;;;;;;;22.81;38.70;102349.06;5009662;28;20045;-69
2022/06/14 08:35:52;;;;;;;4.13;1.58;;;;;;;22.44;39.94;102355.38;5013021;28;20022;-69
2022/06/14 08:38:42;;;;;;;7.05;1.60;;;;;;;22.03;40.00;102348.28;5013441;28;20485;-72
2022/06/14 08:41:19;;;;;;;6.13;1.60;;;;;;;21.55;41.63;102349.16;5013425;28;20026;-72
2022/06/14 08:43:48;;;;;;;5.47;1.63;;;;;;;21.09;43.47;102351.31;5012054;28;20057;-72
2022/06/14 08:46:24;;;;;;;5.97;1.60;;;;;;;20.54;44.67;102353.84;5013255;28;20478;-72
2022/06/14 08:49:10;;;;;;;4.55;1.10;;;;;;;20.51;46.19;102356.88;5011962;28;20026;-72
2022/06/14 08:52:12;;;;;;;4.82;1.55;;;;;;;20.28;45.14;102345.16;5011973;28;20026;-71
2022/06/14 08:55:03;;;;;;;4.15;1.60;;;;;;;19.79;44.96;102349.31;5013228;28;20105;-73
2022/06/14 08:57:37;;;;;;;3.25;1.30;;;;;;;19.35;45.81;102339.59;5011892;28;20034;-71
2022/06/14 09:00:44;;;;;;;5.65;1.70;;;;;;;19.73;44.29;102346.69;5011909;28;20375;-72
2022/06/14 09:03:35;;;;;;;4.65;1.40;;;;;;;21.24;41.17;102337.00;5013212;28;20026;-71
2022/06/14 09:06:03;;;;;;;4.38;1.55;;;;;;;23.07;41.36;102334.59;5013038;28;20598;-72
2022/06/14 09:08:45;;;;;;;5.72;1.55;;;;;;;23.27;38.55;102331.56;5011762;28;20071;-72
2022/06/14 09:12:11;;;;;;;9.93;1.77;;;;;;;20.67;42.05;102332.72;5013090;28;20544;-72
2022/06/14 09:15:19;;;;;;;4.00;1.58;;;;;;;19.89;44.84;102327.84;4955605;28;20038;-71
2022/06/14 09:17:56;;;;;;;6.05;1.58;;;;;;;19.64;45.62;102324.31;4972079;28;20042;-72
2022/06/14 09:20:59;;;;;;;4.10;1.60;;;;;;;19.57;46.77;102325.16;5006335;28;20034;-71
2022/06/14 09:23:45;;;;;;;5.95;1.65;;;;;;;19.98;44.83;102326.56;5012994;28;20030;-72
2022/06/14 09:26:39;;;;;;;4.18;1.67;;;;;;;20.02;47.05;102327.78;5013245;28;20043;-72
2022/06/14 09:29:25;;;;;;;4.90;1.30;;;;;;;20.12;47.02;102327.28;5013443;28;20037;-71
2022/06/14 09:32:04;;;;;;;4.63;1.25;;;;;;;19.97;47.09;102330.22;5011601;28;20065;-70
2022/06/14 09:34:45;;;;;;;3.72;1.50;;;;;;;20.23;45.60;102328.44;5013549;28;20069;-72
2022/06/14 09:37:51;;;;;;;3.40;1.20;;;;;;;20.19;45.49;102322.00;5012975;28;20120;-71
2022/06/14 09:41:07;;;;;;;4.15;1.40;;;;;;;20.23;44.75;102313.47;5012916;28;20025;-72
2022/06/14 09:43:54;;;;;;;5.85;1.55;;;;;;;20.19;45.17;102322.00;5010996;28;20493;-73
2022/06/14 09:46:50;;;;;;;4.45;1.60;;;;;;;20.12;45.56;102318.63;5010041;28;20026;-72
2022/06/14 09:49:53;;;;;;;4.80;1.30;;;;;;;20.19;44.93;102317.53;5015367;28;20026;-72
2022/06/14 09:52:37;;;;;;;3.63;1.47;;;;;;;20.24;44.51;102320.34;5016284;28;20481;-71
2022/06/14 09:55:36;;;;;;;7.88;1.50;;;;;;;19.92;46.16;102313.50;5016365;28;20473;-71
2022/06/14 09:58:13;;;;;;;3.88;1.30;;;;;;;20.08;45.86;102310.34;5016230;28;20038;-71
2022/06/14 10:01:02;;;;;;;3.60;1.38;;;;;;;19.87;47.71;102308.09;5014876;28;20025;-72
2022/06/14 10:03:31;;;;;;;5.35;1.65;;;;;;;20.38;44.94;102313.16;5014558;28;20032;-72
2022/06/14 10:06:40;;;;;;;7.68;1.80;;;;;;;20.80;44.48;102313.41;5016057;28;20100;-71
2022/06/14 10:09:55;;;;;;;5.78;1.35;;;;;;;20.77;43.69;102305.16;5014800;28;20068;-72
2022/06/14 10:12:26;;;;;;;3.65;1.30;;;;;;;20.73;43.52;102308.22;4989885;28;20030;-71
2022/06/14 10:15:21;;;;;;;3.80;1.40;;;;;;;20.70;43.80;102308.66;5014519;28;20025;-71
2022/06/14 10:18:08;;;;;;;5.53;1.77;;;;;;;20.66;43.47;102306.69;5015847;28;20032;-73
2022/06/14 10:20:43;;;;;;;4.65;1.60;;;;;;;20.62;43.03;102297.63;5015631;28;20032;-71
2022/06/14 10:23:37;;;;;;;4.55;1.60;;;;;;;20.44;43.26;102314.91;5014471;28;20481;-71
2022/06/14 10:29:05;;;;;;;5.32;1.60;;;;;;;20.35;43.93;102295.22;5016232;28;19916;-72
2022/06/14 10:31:42;;;;;;;3.33;1.30;;;;;;;20.55;43.62;102297.69;5028886;28;20570;-72
2022/06/14 10:34:13;;;;;;;3.15;1.40;;;;;;;21.01;43.82;102285.91;5035585;28;20040;-72
2022/06/14 10:36:55;;;;;;;4.00;1.50;;;;;;;22.67;39.34;102285.25;5035421;28;20029;-72
2022/06/14 10:39:51;;;;;;;4.83;1.50;;;;;;;23.77;37.88;102284.25;5035173;28;20033;-72
2022/06/14 10:42:51;;;;;;;6.60;1.55;;;;;;;24.17;36.25;102288.56;5017517;28;20040;-72
2022/06/14 10:45:28;;;;;;;3.95;1.55;;;;;;;23.74;37.10;102287.34;4985424;28;20029;-72
2022/06/14 10:48:10;;;;;;;5.45;1.23;;;;;;;24.23;37.87;102271.75;5033864;28;20450;-73
2022/06/14 10:50:38;;;;;;;4.93;1.17;;;;;;;24.67;34.27;102271.81;5016794;28;20397;-73
2022/06/14 10:53:09;;;;;;;5.18;1.48;;;;;;;24.94;35.95;102271.84;5016610;28;20041;-73
2022/06/14 10:55:54;;;;;;;5.38;1.35;;;;;;;23.83;36.81;102275.34;5016990;28;20056;-72
2022/06/14 10:58:31;;;;;;;2.65;1.30;;;;;;;22.04;38.30;102278.84;5034429;28;20037;-72
2022/06/14 11:01:25;;;;;;;3.42;1.45;;;;;;;21.54;39.31;102266.81;5017022;28;20060;-73
2022/06/14 11:04:12;;;;;;;4.32;1.20;;;;;;;21.51;39.60;102259.38;5033611;28;20112;-71
2022/06/14 11:07:19;;;;;;;2.30;1.30;;;;;;;21.56;40.90;102259.53;5034591;28;20074;-72
2022/06/14 11:10:12;;;;;;;3.35;1.48;;;;;;;21.38;40.44;102259.59;5033625;28;20472;-73
2022/06/14 11:13:06;;;;;;;4.97;1.30;;;;;;;21.16;39.64;102249.50;5016925;28;20032;-73
2022/06/14 11:15:44;;;;;;;4.78;1.23;;;;;;;21.47;39.71;102252.97;5015166;28;20370;-72
2022/06/14 11:18:51;;;;;;;4.80;1.30;;;;;;;22.29;41.49;102252.31;5014903;28;20439;-73
2022/06/14 11:21:49;;;;;;;2.53;1.20;;;;;;;22.05;40.18;102246.22;5033475;28;20053;-72
2022/06/14 11:24:20;;;;;;;3.38;1.30;;;;;;;21.96;40.07;102226.53;5016445;28;20024;-72
2022/06/14 11:27:05;;;;;;;6.95;1.90;;;;;;;21.90;38.50;102233.50;5016963;28;20025;-72
2022/06/14 11:30:15;;;;;;;3.03;1.30;;;;;;;22.23;40.67;102237.44;5034691;28;20026;-72
2022/06/14 11:32:52;;;;;;;5.07;1.50;;;;;;;22.17;38.27;102238.31;5012615;28;20346;-72
2022/06/14 11:35:26;;;;;;;6.80;1.70;;;;;;;21.76;39.61;102245.28;5016636;28;20477;-73
2022/06/14 11:38:22;;;;;;;2.60;1.48;;;;;;;21.74;40.48;102240.22;5033971;28;20025;-73
2022/06/14 11:40:52;;;;;;;5.32;1.83;;;;;;;21.65;40.98;102235.53;5016427;28;20021;-72
2022/06/14 11:43:51;;;;;;;5.88;1.23;;;;;;;21.92;39.89;102235.91;5033644;28;20021;-74
2022/06/14 11:46:38;;;;;;;3.33;1.60;;;;;;;22.12;39.48;102235.56;5034324;28;20469;-73
2022/06/14 11:49:29;;;;;;;6.70;1.50;;;;;;;22.24;40.69;102231.13;5017438;28;20017;-72
2022/06/14 11:52:32;;;;;;;6.10;1.42;;;;;;;21.84;40.11;102229.97;5035622;28;20028;-73
2022/06/14 11:55:13;;;;;;;6.35;1.83;;;;;;;21.16;41.26;102225.84;5033678;28;20481;-73
2022/06/14 11:57:51;;;;;;;4.75;1.50;;;;;;;21.65;40.94;102220.53;5033997;28;20026;-72
2022/06/14 12:00:47;;;;;;;3.03;1.50;;;;;;;22.00;40.27;102223.19;5017758;28;20053;-72
2022/06/14 12:03:23;;;;;;;3.20;1.50;;;;;;;22.19;40.00;102221.31;5019036;28;20057;-72
2022/06/14 12:05:58;;;;;;;5.07;1.40;;;;;;;22.67;39.92;102222.84;5036390;28;20464;-72
2022/06/14 12:08:39;;;;;;;4.78;1.58;;;;;;;23.59;38.54;102224.53;5018089;28;20035;-73
2022/06/14 12:11:23;;;;;;;3.53;1.38;;;;;;;22.51;38.55;102220.94;5034405;28;20044;-72
2022/06/14 12:14:34;;;;;;;3.42;1.30;;;;;;;22.75;39.86;102224.31;5018279;28;20033;-72
2022/06/14 12:17:32;;;;;;;8.77;1.52;;;;;;;22.61;40.41;102215.06;5017541;28;20045;-73
2022/06/14 12:20:24;;;;;;;3.58;1.38;;;;;;;22.67;40.44;102222.03;5028772;28;20175;-71
2022/06/14 12:23:13;;;;;;;2.55;1.50;;;;;;;21.23;40.33;102222.31;5025182;28;20037;-72
2022/06/14 12:28:30;;;;;;;2.78;1.33;;;;;;;21.57;40.36;102207.72;5035576;28;20524;-72
2022/06/14 12:31:24;;;;;;;6.10;1.83;;;;;;;21.75;40.20;102205.00;5013390;28;20045;-72
2022/06/14 12:33:54;;;;;;;5.55;1.40;;;;;;;21.69;41.98;102205.09;5006285;28;20068;-72
2022/06/14 12:36:42;;;;;;;3.63;1.50;;;;;;;21.72;41.01;102205.47;5014159;28;20021;-73
2022/06/14 12:39:16;;;;;;;3.75;1.60;;;;;;;21.61;40.46;102199.16;5014393;28;20030;-71
2022/06/14 12:42:12;;;;;;;4.82;1.65;;;;;;;21.50;41.39;102196.50;5013884;28;20033;-72
2022/06/14 12:44:53;;;;;;;5.75;1.55;;;;;;;22.54;41.34;102196.75;4996464;28;20101;-73